createdAt,value
2022-08-12T00:03:56.463Z,13.16
2022-08-12T00:09:17.973Z,13.22
2022-08-12T00:14:44.641Z,13.26
2022-08-12T00:20:06.070Z,13.23
2022-08-12T00:26:05.756Z,12.91
2022-08-12T00:31:11.642Z,12.55
2022-08-12T00:36:35.821Z,11.18
2022-08-12T00:41:58.746Z,11.20
2022-08-12T00:47:03.816Z,10.98
2022-08-12T00:52:07.894Z,11.07
2022-08-12T00:57:12.901Z,11.56
2022-08-12T01:02:25.878Z,11.88
2022-08-12T01:07:48.390Z,11.88
2022-08-12T01:12:52.413Z,11.99
2022-08-12T01:17:57.330Z,12.12
2022-08-12T01:23:19.200Z,12.52
2022-08-12T01:28:25.373Z,12.15
2022-08-12T01:33:35.465Z,12.22
2022-08-12T01:38:41.880Z,11.85
2022-08-12T01:43:47.605Z,11.78
2022-08-12T01:49:02.740Z,11.80
2022-08-12T01:54:11.182Z,11.39
2022-08-12T01:59:40.346Z,11.56
2022-08-12T02:05:18.551Z,15.35
2022-08-12T02:10:51.914Z,12.34
2022-08-12T02:16:07.265Z,11.90
2022-08-12T02:21:21.284Z,11.76
2022-08-12T02:26:27.019Z,11.54
2022-08-12T02:31:31.864Z,11.23
2022-08-12T02:36:37.701Z,13.13
2022-08-12T02:41:46.204Z,13.56
2022-08-12T02:46:55.579Z,13.62
2022-08-12T02:52:00.449Z,12.70
2022-08-12T02:57:03.652Z,13.00
2022-08-12T03:02:13.312Z,13.47
2022-08-12T03:07:22.047Z,13.89
2022-08-12T03:12:34.205Z,13.51
2022-08-12T03:17:47.237Z,14.58
2022-08-12T03:23:29.022Z,15.90
2022-08-12T03:28:50.841Z,13.04
2022-08-12T03:34:01.549Z,15.64
2022-08-12T03:39:19.054Z,15.94
2022-08-12T03:44:50.058Z,16.60
2022-08-12T03:50:13.970Z,14.94
2022-08-12T03:55:35.736Z,15.07
2022-08-12T04:00:38.840Z,12.68
2022-08-12T04:05:55.901Z,12.74
2022-08-12T04:11:18.503Z,12.37
2022-08-12T04:16:22.300Z,12.07
2022-08-12T04:21:26.798Z,11.76
2022-08-12T04:26:30.212Z,12.10
2022-08-12T04:31:34.522Z,10.94
2022-08-12T04:36:40.036Z,11.42
2022-08-12T04:41:56.057Z,11.46
2022-08-12T04:47:01.710Z,10.33
2022-08-12T04:52:06.467Z,8.57
2022-08-12T04:57:10.056Z,7.28
2022-08-12T05:02:16.667Z,6.28
2022-08-12T05:07:24.490Z,7.05
2022-08-12T05:12:30.491Z,8.66
2022-08-12T05:17:33.389Z,8.60
2022-08-12T05:22:39.973Z,9.05
2022-08-12T05:27:57.954Z,8.72
2022-08-12T05:33:06.640Z,9.37
2022-08-12T05:38:31.520Z,7.37
2022-08-12T05:43:34.767Z,4.88
2022-08-12T05:48:37.795Z,4.78
2022-08-12T05:53:42.959Z,2.81
2022-08-12T05:58:46.253Z,3.27
2022-08-12T06:03:51.187Z,2.73
2022-08-12T06:08:56.289Z,1.71
2022-08-12T06:13:59.439Z,1.60
2022-08-12T06:19:03.857Z,3.03
2022-08-12T06:24:09.021Z,1.31
2022-08-12T06:30:09.072Z,-1.98
2022-08-12T06:35:25.222Z,-1.94
2022-08-12T06:40:10.668Z,-4.73
2022-08-12T06:45:13.523Z,118.79
2022-08-12T06:50:16.717Z,118.47
2022-08-12T06:55:26.019Z,-5.64
2022-08-12T07:00:32.627Z,118.42
2022-08-12T07:05:36.338Z,118.27
2022-08-12T07:10:45.895Z,-4.53
2022-08-12T07:15:48.861Z,-5.66
2022-08-12T07:20:53.276Z,114.99
2022-08-12T07:25:59.410Z,115.34
2022-08-12T07:31:05.304Z,113.33
2022-08-12T07:36:10.960Z,109.30
2022-08-12T07:41:18.701Z,109.64
2022-08-12T07:46:24.317Z,106.36
2022-08-12T07:51:28.277Z,109.59
2022-08-12T07:56:33.016Z,99.32
2022-08-12T08:01:38.384Z,99.28
2022-08-12T08:06:45.244Z,98.11
2022-08-12T08:12:08.610Z,96.74
2022-08-12T08:17:11.741Z,98.74
2022-08-12T08:22:14.850Z,98.24
2022-08-12T08:27:19.361Z,98.23
2022-08-12T08:32:24.797Z,97.44
2022-08-12T08:37:32.878Z,96.77
2022-08-12T08:42:40.704Z,97.33
2022-08-12T08:47:45.082Z,97.52
2022-08-12T08:52:49.112Z,99.61
2022-08-12T08:57:55.348Z,99.03
2022-08-12T09:02:59.630Z,100.53
2022-08-12T09:08:14.274Z,97.79
2022-08-12T09:14:10.001Z,96.76
2022-08-12T09:18:53.210Z,96.56
2022-08-12T09:24:05.843Z,95.43
2022-08-12T09:29:11.975Z,96.53
2022-08-12T09:34:27.766Z,96.59
2022-08-12T09:40:06.480Z,95.86
2022-08-12T09:45:23.524Z,94.99
2022-08-12T09:50:28.349Z,97.16
2022-08-12T09:56:06.398Z,96.81
2022-08-12T10:01:14.736Z,96.94
2022-08-12T10:06:26.176Z,98.83
2022-08-12T10:12:09.689Z,100.22
2022-08-12T10:17:14.858Z,101.15
2022-08-12T10:22:39.157Z,102.55
2022-08-12T10:28:03.308Z,102.47
2022-08-12T10:33:18.112Z,106.16
2022-08-12T10:38:33.219Z,104.83
2022-08-12T10:43:55.055Z,105.09
2022-08-12T10:49:05.403Z,107.39
2022-08-12T10:54:13.634Z,107.52
2022-08-12T10:59:17.999Z,108.38
2022-08-12T11:04:49.684Z,109.34
2022-08-12T11:09:58.553Z,109.65
2022-08-12T11:15:14.741Z,108.34
2022-08-12T11:20:28.973Z,108.82
2022-08-12T11:25:56.763Z,110.74
2022-08-12T11:30:57.002Z,111.36
2022-08-12T11:36:16.479Z,109.62
2022-08-12T11:41:31.862Z,110.70
2022-08-12T11:46:37.323Z,109.01
2022-08-12T11:51:41.845Z,110.32
2022-08-12T11:56:52.406Z,112.77
2022-08-12T12:02:05.029Z,115.12
2022-08-12T12:07:11.465Z,115.07
2022-08-12T12:12:15.144Z,115.29
2022-08-12T12:17:18.466Z,116.44
2022-08-12T12:22:27.222Z,115.45
2022-08-12T12:28:06.054Z,113.86
2022-08-12T12:33:10.670Z,113.42
2022-08-12T12:38:25.204Z,113.29
2022-08-12T12:43:43.349Z,112.83
2022-08-12T12:48:47.876Z,112.16
2022-08-12T12:54:07.984Z,110.84
2022-08-12T12:59:54.662Z,109.84
2022-08-12T13:04:37.589Z,109.97
2022-08-12T13:09:46.735Z,107.21
2022-08-12T13:14:50.194Z,105.86
2022-08-12T13:19:55.837Z,104.70
2022-08-12T13:25:01.985Z,107.78
2022-08-12T13:30:11.652Z,101.86
2022-08-12T13:35:20.363Z,102.42
2022-08-12T13:40:40.949Z,105.40
2022-08-12T13:45:44.117Z,102.82
2022-08-12T13:50:47.635Z,103.26
2022-08-12T13:55:59.532Z,104.67
2022-08-12T14:01:08.592Z,103.67
2022-08-12T14:06:15.188Z,100.90
2022-08-12T14:11:25.379Z,101.77
2022-08-12T14:16:38.027Z,102.89
2022-08-12T14:21:59.578Z,104.86
2022-08-12T14:27:08.819Z,103.29
2022-08-12T14:32:16.510Z,106.47
2022-08-12T14:37:57.113Z,105.76
2022-08-12T14:42:47.598Z,110.06
2022-08-12T14:47:58.734Z,111.81
2022-08-12T14:58:27.271Z,111.68
2022-08-12T15:03:52.261Z,111.92
2022-08-12T15:08:55.058Z,113.96
2022-08-12T15:14:02.757Z,115.99
2022-08-12T15:19:12.734Z,118.28
2022-08-12T15:24:33.724Z,118.63
2022-08-12T15:29:41.816Z,0.75
2022-08-12T15:34:49.735Z,5.86
2022-08-12T15:40:01.087Z,7.61
2022-08-12T15:45:08.726Z,11.95
2022-08-12T15:50:11.768Z,17.20
2022-08-12T15:55:33.425Z,18.49
2022-08-12T16:00:39.942Z,18.33
2022-08-12T16:06:19.110Z,17.41
2022-08-12T16:11:14.816Z,16.70
2022-08-12T16:16:23.924Z,16.25
2022-08-12T16:21:51.848Z,17.54
2022-08-12T16:26:51.349Z,17.07
2022-08-12T16:31:59.767Z,15.05
2022-08-12T16:37:03.320Z,13.30
2022-08-12T16:42:06.735Z,12.94
2022-08-12T16:47:12.364Z,12.68
2022-08-12T16:52:18.746Z,11.79
2022-08-12T16:57:34.634Z,12.23
2022-08-12T17:02:40.585Z,12.23
2022-08-12T17:07:47.221Z,11.94
2022-08-12T17:12:55.109Z,11.78
2022-08-12T17:18:39.377Z,11.91
2022-08-12T17:23:47.982Z,12.01
2022-08-12T17:28:52.666Z,11.82
2022-08-12T17:33:58.568Z,11.89
2022-08-12T17:39:04.337Z,11.85
2022-08-12T17:44:12.481Z,11.71
2022-08-12T17:50:02.256Z,11.54
2022-08-12T17:54:44.532Z,12.17
2022-08-12T17:59:50.630Z,11.57
2022-08-12T18:05:09.532Z,11.62
2022-08-12T18:10:35.212Z,11.49
2022-08-12T18:16:05.532Z,11.16
2022-08-12T18:21:03.706Z,11.43
2022-08-12T18:26:23.023Z,11.60
2022-08-12T18:31:44.193Z,10.92
2022-08-12T18:36:54.067Z,10.47
2022-08-12T18:41:59.761Z,10.35
2022-08-12T18:47:04.994Z,10.66
2022-08-12T18:52:12.017Z,10.21
2022-08-12T18:57:45.930Z,10.22
2022-08-12T19:02:41.121Z,10.40
2022-08-12T19:08:01.304Z,10.47
2022-08-12T19:13:25.124Z,10.56
2022-08-12T19:18:31.359Z,10.79
2022-08-12T19:23:37.031Z,10.11
2022-08-12T19:28:40.801Z,9.97
2022-08-12T19:34:06.494Z,10.28
2022-08-12T19:39:15.379Z,10.62
2022-08-12T19:44:27.346Z,10.46
2022-08-12T19:49:30.972Z,10.75
2022-08-12T19:54:36.615Z,10.80
2022-08-12T19:59:43.538Z,11.30
2022-08-12T20:06:03.394Z,10.60
2022-08-12T20:10:36.291Z,10.58
2022-08-12T20:15:44.447Z,10.76
2022-08-12T20:20:48.224Z,11.39
2022-08-12T20:26:01.874Z,11.28
2022-08-12T20:31:08.367Z,11.56
2022-08-12T20:36:41.363Z,11.46
2022-08-12T20:41:37.355Z,11.28
2022-08-12T20:46:40.411Z,11.29
2022-08-12T20:51:55.621Z,11.09
2022-08-12T20:57:09.640Z,10.88
2022-08-12T21:02:14.754Z,9.91
2022-08-12T21:07:23.537Z,9.51
2022-08-12T21:12:34.123Z,9.58
2022-08-12T21:18:00.567Z,9.46
2022-08-12T21:23:06.107Z,9.15
2022-08-12T21:28:10.663Z,9.24
2022-08-12T21:33:16.968Z,9.22
2022-08-12T21:38:20.243Z,8.66
2022-08-12T21:43:29.107Z,8.92
2022-08-12T21:48:49.257Z,9.30
2022-08-12T21:54:07.820Z,9.66
2022-08-12T21:59:15.870Z,9.53
2022-08-12T22:04:39.608Z,9.47
2022-08-12T22:09:43.877Z,9.41
2022-08-12T22:14:50.528Z,9.11
2022-08-12T22:19:53.614Z,9.14
2022-08-12T22:24:58.578Z,9.38
2022-08-12T22:30:21.915Z,9.27
2022-08-12T22:35:56.079Z,9.35
2022-08-12T22:41:00.689Z,9.65
2022-08-12T22:46:26.587Z,9.41
2022-08-12T22:52:00.236Z,9.56
2022-08-12T22:56:56.521Z,9.05
2022-08-12T23:02:02.458Z,8.57
2022-08-12T23:07:07.156Z,8.55
2022-08-12T23:12:10.556Z,8.30
2022-08-12T23:17:40.020Z,8.36
2022-08-12T23:23:02.911Z,8.31
2022-08-12T23:28:29.593Z,8.44
2022-08-12T23:34:01.409Z,8.66
2022-08-12T23:39:01.904Z,9.30
2022-08-12T23:44:06.958Z,9.44
2022-08-12T23:49:55.410Z,9.34
2022-08-12T23:54:44.091Z,9.11
2022-08-12T23:59:55.436Z,9.39
